Metar Aviation Weather Data ENHD

12°C Temp
0°C Dewpoint
% Humidity
Temperature
23 KM/H
14 MPH
12 KTS
190°
Due South

Wind Speed
Clear
Conditions
Pressure 1016.92 (hPa) - 30.03 (in)
Visibility 6.2 (mi) - 10 (km)

Current Conditions
ENHD
Metar :ENHD 200850Z AUTO 19012KT 9999 NCD 12/M00 Q1017
Tue 20th April 10:50 am

  Metar Aviation API Data Provided by https://www.checkwx.com/ PHP scripts by weather34.com ©2021